Time;durP1;ratioP1;P1;durP2;ratioP2;P2;SDS_P1;SDS_P2;PMS_P1;PMS_P2;Temp;Humidity;BMP_temperature;BMP_pressure;BME280_temperature;BME280_humidity;BME280_pressure;Samples;Min_cycle;Max_cycle;Signal;HPM_P1;HPM_P2
2023/01/16 00:01:13;;;;;;;;;;;;;;;3.29;100.00;99455.31;4895572;29;20002;-75
2023/01/16 00:03:38;;;;;;;;;;;;;;;3.30;100.00;99453.53;4896640;29;20571;-75
2023/01/16 00:06:04;;;;;;;;;;;;;;;3.30;100.00;99450.91;4896930;29;21915;-75
2023/01/16 00:08:30;;;;;;;;;;;;;;;3.30;100.00;99446.53;4895770;29;21429;-75
2023/01/16 00:10:55;;;;;;;;;;;;;;;3.30;100.00;99440.44;4897214;29;19939;-76
2023/01/16 00:13:21;;;;;;;;;;;;;;;3.30;100.00;99429.97;4896837;29;19947;-75
2023/01/16 00:15:47;;;;;;;;;;;;;;;3.29;100.00;99439.59;4895043;29;20252;-76
2023/01/16 00:18:13;;;;;;;;;;;;;;;3.30;100.00;99424.75;4879003;29;19978;-76
2023/01/16 00:20:38;;;;;;;;;;;;;;;3.30;100.00;99432.59;4896463;29;20082;-76
2023/01/16 00:23:04;;;;;;;;;;;;;;;3.29;100.00;99421.28;4896272;29;20209;-76
2023/01/16 00:25:29;;;;;;;;;;;;;;;3.30;100.00;99417.75;4895233;29;20359;-76
2023/01/16 00:27:55;;;;;;;;;;;;;;;3.30;100.00;99424.75;4896182;29;19931;-76
2023/01/16 00:30:21;;;;;;;;;;;;;;;3.29;100.00;99423.03;4895520;29;19981;-75
2023/01/16 00:32:46;;;;;;;;;;;;;;;3.28;100.00;99422.22;4894304;29;20046;-75
2023/01/16 00:35:12;;;;;;;;;;;;;;;3.27;100.00;99415.25;4895952;29;19927;-75
2023/01/16 00:37:40;;;;;;;;;;;;;;;3.25;100.00;99409.22;4895099;29;19927;-75
2023/01/16 00:40:06;;;;;;;;;;;;;;;3.23;100.00;99404.03;4879141;29;20663;-75
2023/01/16 00:42:31;;;;;;;;;;;;;;;3.23;100.00;99392.75;4880843;29;19931;-74
2023/01/16 00:44:57;;;;;;;;;;;;;;;3.22;100.00;99391.03;4878063;29;20352;-76
2023/01/16 00:47:22;;;;;;;;;;;;;;;3.20;100.00;99377.16;4895793;29;20453;-75
2023/01/16 00:49:48;;;;;;;;;;;;;;;3.19;100.00;99383.31;4896484;29;20448;-75
2023/01/16 00:52:13;;;;;;;;;;;;;;;3.17;100.00;99383.38;4895030;29;20022;-76
2023/01/16 00:54:38;;;;;;;;;;;;;;;3.16;100.00;99376.41;4895333;29;19953;-74
2023/01/16 00:57:04;;;;;;;;;;;;;;;3.15;100.00;99363.41;4896095;29;20022;-74
2023/01/16 00:59:29;;;;;;;;;;;;;;;3.09;100.00;99364.50;4895269;29;20344;-75
2023/01/16 01:01:55;;;;;;;;;;;;;;;3.06;100.00;99360.22;4895534;29;19927;-75
2023/01/16 01:04:20;;;;;;;;;;;;;;;3.04;100.00;99356.00;4895605;29;20420;-76
2023/01/16 01:06:46;;;;;;;;;;;;;;;3.02;100.00;99368.25;4894476;29;19927;-76
2023/01/16 01:09:11;;;;;;;;;;;;;;;3.00;100.00;99368.34;4895235;29;19931;-76
2023/01/16 01:11:36;;;;;;;;;;;;;;;2.99;100.00;99363.97;4895318;29;20364;-76
2023/01/16 01:14:02;;;;;;;;;;;;;;;2.98;100.00;99363.16;4895012;29;20548;-75
2023/01/16 01:16:27;;;;;;;;;;;;;;;2.99;100.00;99358.75;4894066;29;20302;-76
2023/01/16 01:18:53;;;;;;;;;;;;;;;2.98;100.00;99351.81;4895236;29;19931;-75
2023/01/16 01:21:18;;;;;;;;;;;;;;;2.97;100.00;99355.34;4877137;29;19935;-75
2023/01/16 01:23:44;;;;;;;;;;;;;;;2.97;100.00;99342.28;4877223;29;19923;-75
2023/01/16 01:26:15;;;;;;;;;;;;;;;2.96;100.00;99340.59;4894777;29;20026;-75
2023/01/16 01:28:40;;;;;;;;;;;;;;;2.95;100.00;99337.09;4894211;29;20422;-75
2023/01/16 01:31:06;;;;;;;;;;;;;;;2.94;100.00;99340.63;4895178;29;20003;-75
2023/01/16 01:33:32;;;;;;;;;;;;;;;2.93;100.00;99332.84;4893145;29;20074;-75
2023/01/16 01:35:57;;;;;;;;;;;;;;;2.92;100.00;99331.13;4892982;29;20023;-74
2023/01/16 01:38:23;;;;;;;;;;;;;;;2.91;100.00;99324.22;4892853;29;20029;-75
2023/01/16 01:40:48;;;;;;;;;;;;;;;2.90;100.00;99306.81;4894398;29;20251;-75
2023/01/16 01:43:14;;;;;;;;;;;;;;;2.88;100.00;99296.41;4894316;29;20069;-74
2023/01/16 01:45:40;;;;;;;;;;;;;;;2.87;100.00;99292.09;4895022;29;19935;-74
2023/01/16 01:48:12;;;;;;;;;;;;;;;2.87;100.00;99291.28;4895221;29;19931;-75
2023/01/16 01:50:47;;;;;;;;;;;;;;;2.85;100.00;99278.25;4894133;29;20346;-75
2023/01/16 01:53:19;;;;;;;;;;;;;;;2.84;100.00;99281.78;4877920;29;19927;-75
2023/01/16 01:55:45;;;;;;;;;;;;;;;2.81;100.00;99284.50;4894498;29;19935;-75
2023/01/16 01:58:10;;;;;;;;;;;;;;;2.80;100.00;99274.94;4892481;29;19927;-75
2023/01/16 02:00:36;;;;;;;;;;;;;;;2.79;100.00;99268.03;4895153;29;20602;-75
2023/01/16 02:03:08;;;;;;;;;;;;;;;2.77;100.00;99267.25;4894380;29;20561;-74
2023/01/16 02:05:44;;;;;;;;;;;;;;;2.75;100.00;99259.44;4877195;29;20547;-75
2023/01/16 02:08:10;;;;;;;;;;;;;;;2.71;100.00;99263.94;4894545;29;19927;-74
2023/01/16 02:10:49;;;;;;;;;;;;;;;2.69;100.00;99254.47;4893218;29;19935;-75
2023/01/16 02:13:14;;;;;;;;;;;;;;;2.67;100.00;99244.06;4879453;29;20043;-75
2023/01/16 02:19:14;;;;;;;;;;;;;;;2.67;100.00;99245.84;4893986;29;20399;-75
2023/01/16 02:21:18;;;;;;;;;;;;;;;2.60;100.00;99239.13;4893308;29;19932;-75
2023/01/16 02:24:02;;;;;;;;;;;;;;;2.54;100.00;99233.22;4894017;29;19927;-75
2023/01/16 02:26:37;;;;;;;;;;;;;;;2.49;100.00;99232.53;4894741;29;19970;-74
2023/01/16 02:29:15;;;;;;;;;;;;;;;2.44;100.00;99227.50;4893687;29;19974;-75
2023/01/16 02:31:55;;;;;;;;;;;;;;;2.41;100.00;99222.38;4894295;29;19950;-75
2023/01/16 02:34:59;;;;;;;;;;;;;;;2.41;100.00;99214.53;4892428;29;21487;-76
2023/01/16 02:37:35;;;;;;;;;;;;;;;2.40;100.00;99212.00;4874647;29;19983;-76
2023/01/16 02:40:06;;;;;;;;;;;;;;;2.42;100.00;99208.44;4859287;29;19931;-75
2023/01/16 02:42:53;;;;;;;;;;;;;;;2.43;100.00;99190.97;4885845;29;20504;-75
2023/01/16 02:45:29;;;;;;;;;;;;;;;2.42;100.00;99186.66;4894749;29;19931;-75
2023/01/16 02:47:54;;;;;;;;;;;;;;;2.42;100.00;99182.31;4894384;29;19931;-75
2023/01/16 02:50:38;;;;;;;;;;;;;;;2.43;100.00;99167.47;4892621;29;20398;-75
2023/01/16 02:53:12;;;;;;;;;;;;;;;2.44;100.00;99166.56;4892524;29;20402;-75
2023/01/16 02:55:39;;;;;;;;;;;;;;;2.48;100.00;99169.91;4893000;29;20470;-74
2023/01/16 02:58:05;;;;;;;;;;;;;;;2.49;100.00;99159.41;4891689;29;19931;-75
2023/01/16 03:00:31;;;;;;;;;;;;;;;2.50;100.00;99161.09;4880523;29;19931;-75
2023/01/16 03:02:56;;;;;;;;;;;;;;;2.51;100.00;99154.94;4875639;29;20264;-75
2023/01/16 03:05:22;;;;;;;;;;;;;;;2.50;100.00;99145.41;4891800;29;19942;-75
2023/01/16 03:07:59;;;;;;;;;;;;;;;2.47;100.00;99150.78;4894055;29;19931;-75
2023/01/16 03:10:28;;;;;;;;;;;;;;;2.42;100.00;99145.72;4892703;29;19961;-75
2023/01/16 03:12:59;;;;;;;;;;;;;;;2.38;100.00;99138.91;4875782;29;20637;-75
2023/01/16 03:15:30;;;;;;;;;;;;;;;2.31;100.00;99129.63;4893585;29;20902;-75
2023/01/16 03:18:14;;;;;;;;;;;;;;;2.27;100.00;99123.66;4893235;29;19939;-75
2023/01/16 03:20:51;;;;;;;;;;;;;;;2.23;100.00;99124.69;4894479;29;19931;-75
2023/01/16 03:23:19;;;;;;;;;;;;;;;2.19;100.00;99120.50;4893376;29;20013;-75
2023/01/16 03:25:50;;;;;;;;;;;;;;;2.15;100.00;99118.91;4892767;29;20315;-75
2023/01/16 03:28:26;;;;;;;;;;;;;;;2.11;100.00;99118.19;4893193;29;19983;-75
2023/01/16 03:30:59;;;;;;;;;;;;;;;2.08;100.00;99114.81;4893595;29;19931;-75
2023/01/16 03:33:31;;;;;;;;;;;;;;;2.10;100.00;99116.47;4893331;29;19927;-75
2023/01/16 03:36:07;;;;;;;;;;;;;;;2.13;100.00;99115.50;4893210;29;19934;-75
2023/01/16 03:38:32;;;;;;;;;;;;;;;2.15;100.00;99108.47;4875399;29;20041;-76
2023/01/16 03:41:00;;;;;;;;;;;;;;;2.20;100.00;99108.28;4893491;29;19941;-76
2023/01/16 03:43:25;;;;;;;;;;;;;;;2.21;100.00;99091.69;4875373;29;19927;-76
2023/01/16 03:45:51;;;;;;;;;;;;;;;2.25;100.00;99095.91;4894063;29;19931;-76
2023/01/16 03:48:35;;;;;;;;;;;;;;;2.28;100.00;99095.75;4892981;29;19935;-76
2023/01/16 03:51:02;;;;;;;;;;;;;;;2.30;100.00;99094.81;4895082;29;19931;-76
2023/01/16 03:53:29;;;;;;;;;;;;;;;2.33;100.00;99087.78;4896438;29;19983;-76
2023/01/16 03:55:58;;;;;;;;;;;;;;;2.37;100.00;99094.56;4896283;29;19931;-76
2023/01/16 03:58:34;;;;;;;;;;;;;;;2.40;100.00;99102.28;4897435;29;20582;-76
2023/01/16 04:01:18;;;;;;;;;;;;;;;2.42;100.00;99103.06;4896602;29;20006;-76
2023/01/16 04:03:44;;;;;;;;;;;;;;;2.43;100.00;99100.41;4878770;29;20468;-76
2023/01/16 04:06:16;;;;;;;;;;;;;;;2.46;100.00;99096.81;4897143;29;20786;-76
2023/01/16 04:08:41;;;;;;;;;;;;;;;2.49;100.00;99098.44;4894425;29;19931;-76
2023/01/16 04:11:07;;;;;;;;;;;;;;;2.50;100.00;99095.78;4896619;29;19975;-76
2023/01/16 04:13:33;;;;;;;;;;;;;;;2.52;100.00;99093.09;4896398;29;19970;-75
2023/01/16 04:15:58;;;;;;;;;;;;;;;2.54;100.00;99086.91;4894328;29;20291;-75
2023/01/16 04:18:25;;;;;;;;;;;;;;;2.56;100.00;99085.06;4895434;29;19933;-75
2023/01/16 04:20:51;;;;;;;;;;;;;;;2.58;100.00;99085.84;4896067;29;20013;-75
2023/01/16 04:23:16;;;;;;;;;;;;;;;2.60;100.00;99074.53;4896004;29;19946;-75
2023/01/16 04:25:42;;;;;;;;;;;;;;;2.62;100.00;99067.47;4895823;29;20384;-75
2023/01/16 04:28:08;;;;;;;;;;;;;;;2.63;100.00;99056.97;4882370;29;20033;-75
2023/01/16 04:30:33;;;;;;;;;;;;;;;2.64;100.00;99055.16;4896017;29;19931;-75
2023/01/16 04:33:05;;;;;;;;;;;;;;;2.66;100.00;99043.75;4896829;29;19942;-76
2023/01/16 04:35:30;;;;;;;;;;;;;;;2.66;100.00;99033.28;4896571;29;20740;-75
2023/01/16 04:37:56;;;;;;;;;;;;;;;2.67;100.00;99029.75;4896005;29;19931;-75
2023/01/16 04:40:21;;;;;;;;;;;;;;;2.68;100.00;99021.00;4896844;29;20362;-75
2023/01/16 04:42:46;;;;;;;;;;;;;;;2.69;100.00;99012.28;4894490;29;19966;-75
2023/01/16 04:45:12;;;;;;;;;;;;;;;2.71;100.00;99010.44;4878473;29;19946;-75
2023/01/16 04:47:37;;;;;;;;;;;;;;;2.71;100.00;98993.91;4893981;29;20295;-75
2023/01/16 04:50:03;;;;;;;;;;;;;;;2.73;100.00;98989.47;4880917;29;20706;-75
2023/01/16 04:52:28;;;;;;;;;;;;;;;2.72;100.00;98986.00;4895425;29;21295;-75
2023/01/16 04:54:53;;;;;;;;;;;;;;;2.75;100.00;98973.69;4895372;29;19935;-75
2023/01/16 04:57:19;;;;;;;;;;;;;;;2.74;100.00;98967.66;4895873;29;20058;-75
2023/01/16 04:59:44;;;;;;;;;;;;;;;2.75;100.00;98968.47;4877734;29;20196;-75
2023/01/16 05:02:09;;;;;;;;;;;;;;;2.74;100.00;98958.94;4895236;29;19931;-75
2023/01/16 05:04:35;;;;;;;;;;;;;;;2.73;100.00;98952.88;4895124;29;20097;-74
2023/01/16 05:07:00;;;;;;;;;;;;;;;2.72;100.00;98943.31;4878013;29;20310;-76
2023/01/16 05:09:25;;;;;;;;;;;;;;;2.67;100.00;98942.69;4895836;29;19985;-75
2023/01/16 05:11:51;;;;;;;;;;;;;;;2.63;100.00;98939.38;4894925;29;20071;-75
2023/01/16 05:14:16;;;;;;;;;;;;;;;2.60;100.00;98929.03;4895201;29;19935;-75
2023/01/16 05:16:42;;;;;;;;;;;;;;;2.57;100.00;98919.56;4894935;29;19967;-74
2023/01/16 05:19:07;;;;;;;;;;;;;;;2.55;100.00;98905.72;4894789;29;19931;-74
2023/01/16 05:21:32;;;;;;;;;;;;;;;2.51;100.00;98904.13;4894201;29;19927;-74
2023/01/16 05:23:58;;;;;;;;;;;;;;;2.45;100.00;98899.19;4893532;29;19935;-75
2023/01/16 05:26:23;;;;;;;;;;;;;;;2.40;100.00;98896.78;4877543;29;19931;-75
2023/01/16 05:28:49;;;;;;;;;;;;;;;2.37;100.00;98893.44;4894732;29;20861;-75
2023/01/16 05:31:14;;;;;;;;;;;;;;;2.30;100.00;98888.47;4895927;29;20298;-75
2023/01/16 05:33:39;;;;;;;;;;;;;;;2.26;100.00;98892.16;4893113;29;20299;-75
2023/01/16 05:36:05;;;;;;;;;;;;;;;2.23;100.00;98881.81;4895443;29;19931;-75
2023/01/16 05:38:30;;;;;;;;;;;;;;;2.21;100.00;98880.19;4876389;29;20596;-75
2023/01/16 05:40:56;;;;;;;;;;;;;;;2.18;100.00;98886.38;4893682;29;19971;-75
2023/01/16 05:43:21;;;;;;;;;;;;;;;2.14;100.00;98885.66;4892652;29;20387;-75
2023/01/16 05:45:46;;;;;;;;;;;;;;;2.11;100.00;98874.50;4894639;29;19937;-75
2023/01/16 05:48:15;;;;;;;;;;;;;;;2.09;100.00;98871.97;4893542;29;19967;-75
2023/01/16 05:50:40;;;;;;;;;;;;;;;2.08;100.00;98859.84;4894621;29;20031;-75
2023/01/16 05:53:05;;;;;;;;;;;;;;;2.09;100.00;98853.69;4880189;29;19928;-75
2023/01/16 05:55:41;;;;;;;;;;;;;;;2.11;100.00;98851.84;4876894;29;20288;-75
2023/01/16 05:58:11;;;;;;;;;;;;;;;2.14;100.00;98856.94;4878544;29;21499;-75
2023/01/16 06:00:37;;;;;;;;;;;;;;;2.17;100.00;98849.00;4894775;29;19931;-75
2023/01/16 06:03:02;;;;;;;;;;;;;;;2.20;100.00;98844.53;4893744;29;19983;-75
2023/01/16 06:05:27;;;;;;;;;;;;;;;2.22;100.00;98832.28;4893674;29;20328;-76
2023/01/16 06:07:56;;;;;;;;;;;;;;;2.22;100.00;98819.25;4894181;29;19979;-75
2023/01/16 06:10:22;;;;;;;;;;;;;;;2.21;100.00;98817.50;4892680;29;20385;-76
2023/01/16 06:12:47;;;;;;;;;;;;;;;2.19;100.00;98819.34;4893236;29;19960;-75
2023/01/16 06:15:12;;;;;;;;;;;;;;;2.19;100.00;98815.00;4893241;29;20399;-75
2023/01/16 06:17:38;;;;;;;;;;;;;;;2.17;100.00;98806.34;4894171;29;20356;-75
2023/01/16 06:20:03;;;;;;;;;;;;;;;2.17;100.00;98806.34;4894434;29;19931;-75
2023/01/16 06:22:29;;;;;;;;;;;;;;;2.16;100.00;98802.06;4894272;29;19927;-75
2023/01/16 06:24:54;;;;;;;;;;;;;;;2.16;100.00;98802.06;4894110;29;20347;-75
2023/01/16 06:27:19;;;;;;;;;;;;;;;2.14;100.00;98790.84;4874440;29;20441;-76
2023/01/16 06:29:45;;;;;;;;;;;;;;;2.12;100.00;98777.84;4892079;29;20429;-75
2023/01/16 06:32:10;;;;;;;;;;;;;;;2.11;100.00;98777.91;4892327;29;19966;-75
2023/01/16 06:34:35;;;;;;;;;;;;;;;2.11;100.00;98780.50;4894190;29;19962;-76
2023/01/16 06:37:01;;;;;;;;;;;;;;;2.09;100.00;98767.53;4892821;29;19931;-76
2023/01/16 06:39:26;;;;;;;;;;;;;;;2.11;100.00;98770.06;4894104;29;20379;-75
2023/01/16 06:41:51;;;;;;;;;;;;;;;2.10;100.00;98764.00;4883311;29;19938;-75
2023/01/16 06:44:17;;;;;;;;;;;;;;;2.11;100.00;98759.63;4893627;29;19935;-76
2023/01/16 06:46:45;;;;;;;;;;;;;;;2.11;100.00;98754.41;4893775;29;20366;-75
2023/01/16 06:49:11;;;;;;;;;;;;;;;2.09;100.00;98738.81;4876480;29;19981;-75
2023/01/16 06:51:36;;;;;;;;;;;;;;;2.09;100.00;98737.97;4893975;29;19935;-75
2023/01/16 06:54:02;;;;;;;;;;;;;;;2.09;100.00;98736.22;4894406;29;20018;-75
2023/01/16 06:56:28;;;;;;;;;;;;;;;2.09;100.00;98725.78;4893674;29;19938;-75
2023/01/16 06:58:54;;;;;;;;;;;;;;;2.11;100.00;98725.69;4893016;29;20387;-75
2023/01/16 07:01:19;;;;;;;;;;;;;;;2.11;100.00;98713.50;4892141;29;20383;-76
2023/01/16 07:03:44;;;;;;;;;;;;;;;2.11;100.00;98712.63;4892418;29;19982;-75
2023/01/16 07:06:12;;;;;;;;;;;;;;;2.13;100.00;98705.59;4893608;29;20049;-75
2023/01/16 07:08:38;;;;;;;;;;;;;;;2.14;100.00;98702.91;4882782;29;20559;-75
2023/01/16 07:11:03;;;;;;;;;;;;;;;2.14;100.00;98694.22;4894113;29;20022;-75
2023/01/16 07:13:29;;;;;;;;;;;;;;;2.14;100.00;98687.22;4875970;29;19935;-75
2023/01/16 07:24:08;;;;;;;;;;;;;;;2.09;100.00;98668.34;4893766;29;19935;-76
2023/01/16 07:26:34;;;;;;;;;;;;;;;2.07;100.00;98669.31;4896222;29;19938;-75
2023/01/16 07:28:59;;;;;;;;;;;;;;;2.05;100.00;98661.56;4895927;29;19966;-75
2023/01/16 07:31:25;;;;;;;;;;;;;;;2.03;100.00;98663.41;4896019;29;19934;-75
2023/01/16 07:33:51;;;;;;;;;;;;;;;2.03;100.00;98650.34;4894730;29;19966;-75
2023/01/16 07:36:16;;;;;;;;;;;;;;;2.02;100.00;98646.88;4896084;29;19923;-75
2023/01/16 07:38:41;;;;;;;;;;;;;;;2.01;100.00;98645.19;4896601;29;19927;-75
2023/01/16 07:41:07;;;;;;;;;;;;;;;2.03;100.00;98648.56;4896640;29;20009;-76
2023/01/16 07:43:32;;;;;;;;;;;;;;;2.02;100.00;98646.88;4897329;29;19920;-75
2023/01/16 07:45:58;;;;;;;;;;;;;;;2.02;100.00;98646.88;4896256;29;19932;-76
2023/01/16 07:48:23;;;;;;;;;;;;;;;2.02;100.00;98633.00;4894527;29;20383;-75
2023/01/16 07:50:49;;;;;;;;;;;;;;;2.01;100.00;98639.97;4895740;29;19938;-76
2023/01/16 07:53:15;;;;;;;;;;;;;;;2.03;100.00;98639.91;4895589;29;19991;-76
2023/01/16 07:55:40;;;;;;;;;;;;;;;2.02;100.00;98633.81;4896022;29;20390;-76
2023/01/16 07:58:05;;;;;;;;;;;;;;;2.01;100.00;98629.53;4879308;29;20493;-76
2023/01/16 08:00:31;;;;;;;;;;;;;;;2.00;100.00;98633.06;4896845;29;20524;-76
2023/01/16 08:02:56;;;;;;;;;;;;;;;2.00;100.00;98625.22;4895751;29;20413;-76
2023/01/16 08:05:21;;;;;;;;;;;;;;;2.00;100.00;98619.13;4896708;29;19978;-75
2023/01/16 08:07:47;;;;;;;;;;;;;;;1.99;100.00;98626.16;4896274;29;19931;-76
2023/01/16 08:10:12;;;;;;;;;;;;;;;2.00;100.00;98619.13;4896087;29;19934;-75
2023/01/16 08:12:38;;;;;;;;;;;;;;;2.00;100.00;98611.31;4896310;29;19942;-76
2023/01/16 08:15:04;;;;;;;;;;;;;;;2.02;100.00;98601.66;4896018;29;20387;-76
2023/01/16 08:17:29;;;;;;;;;;;;;;;2.03;100.00;98590.31;4878381;29;19946;-75
2023/01/16 08:19:56;;;;;;;;;;;;;;;2.05;100.00;98585.03;4895604;29;21511;-75
2023/01/16 08:22:22;;;;;;;;;;;;;;;2.07;100.00;98578.78;4895282;29;20046;-75
2023/01/16 08:24:47;;;;;;;;;;;;;;;2.11;100.00;98566.44;4895815;29;19966;-75
2023/01/16 08:27:13;;;;;;;;;;;;;;;2.12;100.00;98562.94;4896338;29;19931;-75
2023/01/16 08:29:38;;;;;;;;;;;;;;;2.14;100.00;98564.53;4893996;29;19931;-75
2023/01/16 08:32:03;;;;;;;;;;;;;;;2.17;100.00;98553.94;4896079;29;19931;-74
2023/01/16 08:34:29;;;;;;;;;;;;;;;2.20;100.00;98552.09;4894793;29;19938;-75
2023/01/16 08:36:54;;;;;;;;;;;;;;;2.22;100.00;98553.72;4877612;29;19931;-74
2023/01/16 08:39:19;;;;;;;;;;;;;;;2.23;100.00;98544.97;4878812;29;19935;-75
2023/01/16 08:52:44;;;;;;;;;;;;;;;2.36;100.00;98507.81;4892722;29;19942;-75
2023/01/16 08:55:12;;;;;;;;;;;;;;;2.38;100.00;98500.75;4891595;29;20043;-74
2023/01/16 08:57:38;;;;;;;;;;;;;;;2.39;100.00;98492.84;4892351;29;19931;-74
2023/01/16 09:00:04;;;;;;;;;;;;;;;2.41;100.00;98479.72;4894607;29;19931;-74
2023/01/16 09:02:29;;;;;;;;;;;;;;;2.43;100.00;98477.88;4894458;29;20466;-74
2023/01/16 09:04:54;;;;;;;;;;;;;;;2.46;100.00;98472.50;4893414;29;21419;-74
2023/01/16 09:07:20;;;;;;;;;;;;;;;2.48;100.00;98470.66;4895023;29;20395;-75
2023/01/16 09:09:45;;;;;;;;;;;;;;;2.49;100.00;98469.72;4888514;29;20037;-75
2023/01/16 09:14:55;;;;;;;;;;;;;;;2.53;100.00;98455.59;4895301;29;20086;-76
2023/01/16 09:17:21;;;;;;;;;;;;;;;2.54;100.00;98444.22;4873469;29;19939;-74
2023/01/16 09:19:47;;;;;;;;;;;;;;;2.56;100.00;98438.94;4893520;29;20497;-74
2023/01/16 09:22:12;;;;;;;;;;;;;;;2.55;100.00;98432.84;4893924;29;19978;-74
2023/01/16 09:24:38;;;;;;;;;;;;;;;2.57;100.00;98424.94;4892558;29;19935;-74
2023/01/16 09:27:04;;;;;;;;;;;;;;;2.57;100.00;98423.16;4893617;29;19931;-74
2023/01/16 09:29:29;;;;;;;;;;;;;;;2.60;100.00;98416.09;4878610;29;20387;-74
2023/01/16 09:31:55;;;;;;;;;;;;;;;2.61;100.00;98412.56;4893903;29;19999;-74
2023/01/16 09:34:20;;;;;;;;;;;;;;;2.62;100.00;98409.03;4891396;29;20310;-74
2023/01/16 09:36:46;;;;;;;;;;;;;;;2.63;100.00;98397.66;4892093;29;19927;-75
2023/01/16 09:39:11;;;;;;;;;;;;;;;2.65;100.00;98393.19;4891925;29;19927;-74
2023/01/16 09:44:23;;;;;;;;;;;;;;;2.68;100.00;98387.81;4892781;29;19941;-74
2023/01/16 09:46:49;;;;;;;;;;;;;;;2.68;100.00;98382.59;4892827;29;20029;-75
2023/01/16 09:49:15;;;;;;;;;;;;;;;2.66;100.00;98380.03;4891393;29;20298;-75
2023/01/16 09:58:35;;;;;;;;;;;;;;;2.67;100.00;98370.44;4895044;29;19927;-74
2023/01/16 10:00:04;;;;;;;;;;;;;;;2.67;100.00;98354.78;4890522;29;19950;-74
2023/01/16 10:02:33;;;;;;;;;;;;;;;2.65;100.00;98352.22;4862327;29;20430;-74
2023/01/16 10:04:59;;;;;;;;;;;;;;;2.66;100.00;98359.13;4891570;29;19931;-75
2023/01/16 10:07:24;;;;;;;;;;;;;;;2.67;100.00;98344.31;4894680;29;19938;-74
2023/01/16 10:10:08;;;;;;;;;;;;;;;2.68;100.00;98346.00;4890929;29;19927;-74
2023/01/16 10:12:35;;;;;;;;;;;;;;;2.68;100.00;98339.00;4893435;29;19931;-74
2023/01/16 10:15:03;;;;;;;;;;;;;;;2.69;100.00;98326.78;4891953;29;19927;-74
2023/01/16 10:17:48;;;;;;;;;;;;;;;2.70;100.00;98320.63;4894887;29;20064;-74
2023/01/16 10:20:25;;;;;;;;;;;;;;;2.70;100.00;98323.25;4889180;29;20434;-74
2023/01/16 10:23:00;;;;;;;;;;;;;;;2.69;100.00;98311.09;4890936;29;19938;-74
2023/01/16 10:25:46;;;;;;;;;;;;;;;2.69;100.00;98316.34;4889039;29;19931;-74
2023/01/16 10:28:26;;;;;;;;;;;;;;;2.66;100.00;98306.06;4890920;29;19927;-75
2023/01/16 10:31:11;;;;;;;;;;;;;;;2.64;100.00;98292.22;4894208;29;19927;-75
2023/01/16 10:33:57;;;;;;;;;;;;;;;2.62;100.00;98288.84;4851400;29;19932;-75
2023/01/16 10:36:24;;;;;;;;;;;;;;;2.58;100.00;98283.78;4891740;29;19934;-75
2023/01/16 10:38:55;;;;;;;;;;;;;;;2.56;100.00;98275.19;4894053;29;19927;-75
2023/01/16 10:49:55;;;;;;;;;;;;;;;2.41;100.00;98248.09;4892256;29;20458;-77
2023/01/16 10:52:21;;;;;;;;;;;;;;;2.40;100.00;98243.81;4894341;29;19962;-76
2023/01/16 10:54:47;;;;;;;;;;;;;;;2.37;100.00;98238.75;4890807;29;19931;-76
2023/01/16 10:57:15;;;;;;;;;;;;;;;2.37;100.00;98230.06;4892304;29;20477;-76
2023/01/16 10:59:41;;;;;;;;;;;;;;;2.36;100.00;98231.00;4888487;29;19934;-77
2023/01/16 11:02:17;;;;;;;;;;;;;;;2.35;100.00;98221.50;4883828;29;19920;-77
2023/01/16 11:04:42;;;;;;;;;;;;;;;2.30;100.00;98217.34;4872199;29;19931;-76
2023/01/16 11:07:15;;;;;;;;;;;;;;;2.26;100.00;98210.63;4885323;29;20582;-75
2023/01/16 11:09:42;;;;;;;;;;;;;;;2.22;100.00;98201.25;4881533;29;20406;-76
2023/01/16 11:20:24;;;;;;;;;;;;;;;2.07;100.00;98170.75;4884485;29;20347;-76
2023/01/16 11:22:57;;;;;;;;;;;;;;;2.05;100.00;98164.78;4886037;29;19967;-77
2023/01/16 11:25:26;;;;;;;;;;;;;;;2.05;100.00;98160.38;4885509;29;19967;-77
2023/01/16 11:27:52;;;;;;;;;;;;;;;2.03;100.00;98150.00;4885108;29;19931;-77
2023/01/16 11:30:40;;;;;;;;;;;;;;;2.01;100.00;98144.03;4886522;29;20383;-76
2023/01/16 11:33:10;;;;;;;;;;;;;;;2.02;100.00;98137.88;4881209;29;19931;-77
2023/01/16 11:35:36;;;;;;;;;;;;;;;2.01;100.00;98122.31;4868736;29;19935;-77
2023/01/16 11:38:02;;;;;;;;;;;;;;;2.02;100.00;98119.63;4880790;29;19927;-76
2023/01/16 11:40:29;;;;;;;;;;;;;;;2.03;100.00;98112.66;4882015;29;19930;-76
2023/01/16 11:46:02;;;;;;;;;;;;;;;2.02;100.00;98093.53;4886162;29;20062;-77
2023/01/16 11:48:38;;;;;;;;;;;;;;;2.03;100.00;98083.94;4856623;29;19931;-78
2023/01/16 11:51:04;;;;;;;;;;;;;;;2.01;100.00;98083.16;4886871;29;20513;-76
2023/01/16 11:53:31;;;;;;;;;;;;;;;2.02;100.00;98071.81;4885448;29;19927;-77
2023/01/16 11:56:12;;;;;;;;;;;;;;;2.04;100.00;98056.91;4852934;29;19949;-77
2023/01/16 11:58:38;;;;;;;;;;;;;;;1.99;100.00;98054.56;4884341;29;19927;-77
2023/01/16 12:01:10;;;;;;;;;;;;;;;1.94;100.00;98048.75;4885336;29;20314;-78
2023/01/16 12:03:50;;;;;;;;;;;;;;;1.94;100.00;98053.09;4882237;29;20145;-77
2023/01/16 12:06:19;;;;;;;;;;;;;;;1.93;100.00;98049.66;4888331;29;19935;-77
2023/01/16 12:09:04;;;;;;;;;;;;;;;1.94;100.00;98043.53;4885466;29;20004;-77
2023/01/16 12:11:38;;;;;;;;;;;;;;;1.95;100.00;98031.31;4888137;29;20349;-76
2023/01/16 12:14:18;;;;;;;;;;;;;;;1.95;100.00;98026.94;4893479;29;20586;-77
2023/01/16 12:17:02;;;;;;;;;;;;;;;1.98;100.00;98018.09;4890661;29;19931;-77
2023/01/16 12:19:36;;;;;;;;;;;;;;;2.01;100.00;98013.53;4890656;29;19931;-77
2023/01/16 12:22:02;;;;;;;;;;;;;;;2.02;100.00;97999.56;4889527;29;19942;-77
2023/01/16 12:24:30;;;;;;;;;;;;;;;2.02;100.00;97998.75;4890034;29;20562;-77
2023/01/16 12:27:05;;;;;;;;;;;;;;;2.01;100.00;97990.06;4887080;29;19931;-77
2023/01/16 12:29:37;;;;;;;;;;;;;;;2.01;100.00;97987.44;4889104;29;19938;-77
2023/01/16 12:32:06;;;;;;;;;;;;;;;2.05;100.00;97979.47;4888614;29;19938;-77
2023/01/16 12:34:41;;;;;;;;;;;;;;;2.06;100.00;97979.34;4889011;29;19970;-77
2023/01/16 12:37:25;;;;;;;;;;;;;;;2.09;100.00;97970.50;4891018;29;21422;-77
2023/01/16 12:40:09;;;;;;;;;;;;;;;2.13;100.00;97958.97;4887376;29;20026;-77
2023/01/16 12:45:42;;;;;;;;;;;;;;;2.15;100.00;97950.13;4890826;29;20674;-77
2023/01/16 12:48:18;;;;;;;;;;;;;;;2.16;100.00;97943.13;4886944;29;19931;-77
2023/01/16 12:50:47;;;;;;;;;;;;;;;2.18;100.00;97933.44;4892508;29;19931;-77
2023/01/16 12:53:19;;;;;;;;;;;;;;;2.21;100.00;97924.59;4889719;29;19938;-77
2023/01/16 12:55:52;;;;;;;;;;;;;;;2.22;100.00;97915.84;4889821;29;19931;-77
2023/01/16 12:58:18;;;;;;;;;;;;;;;2.24;100.00;97914.81;4885605;29;19931;-78
2023/01/16 13:01:03;;;;;;;;;;;;;;;2.27;100.00;97901.59;4886961;29;19931;-77
2023/01/16 13:03:34;;;;;;;;;;;;;;;2.31;100.00;97904.84;4871223;29;19991;-77
2023/01/16 13:06:00;;;;;;;;;;;;;;;2.34;100.00;97901.22;4872569;29;19927;-78
2023/01/16 13:08:36;;;;;;;;;;;;;;;2.37;100.00;97899.28;4886915;29;19934;-79
2023/01/16 13:14:02;;;;;;;;;;;;;;;2.42;100.00;97886.81;4890912;29;19931;-78
2023/01/16 13:16:32;;;;;;;;;;;;;;;2.44;100.00;97879.72;4889872;29;19979;-78
2023/01/16 13:19:00;;;;;;;;;;;;;;;2.47;100.00;97873.47;4888614;29;20013;-77
2023/01/16 13:21:27;;;;;;;;;;;;;;;2.48;100.00;97875.13;4888977;29;20665;-78
2023/01/16 13:23:58;;;;;;;;;;;;;;;2.50;100.00;97862.81;4890540;29;20340;-78
2023/01/16 13:26:23;;;;;;;;;;;;;;;2.51;100.00;97864.50;4892846;29;19931;-77
2023/01/16 13:28:52;;;;;;;;;;;;;;;2.53;100.00;97857.44;4890828;29;19932;-77
2023/01/16 13:31:30;;;;;;;;;;;;;;;2.53;100.00;97852.22;4886694;29;20065;-78
2023/01/16 13:33:57;;;;;;;;;;;;;;;2.54;100.00;97853.03;4885164;29;19934;-78
2023/01/16 13:36:29;;;;;;;;;;;;;;;2.55;100.00;97850.34;4887511;29;19931;-79
2023/01/16 13:38:55;;;;;;;;;;;;;;;2.55;100.00;97850.34;4886916;29;20447;-78
2023/01/16 13:41:24;;;;;;;;;;;;;;;2.56;100.00;97849.41;4888982;29;20032;-77
2023/01/16 13:46:35;;;;;;;;;;;;;;;2.58;100.00;97844.91;4887022;29;19994;-78
2023/01/16 13:49:02;;;;;;;;;;;;;;;2.61;100.00;97843.88;4885842;29;20383;-78
2023/01/16 13:51:27;;;;;;;;;;;;;;;2.62;100.00;97848.16;4872914;29;20191;-78
2023/01/16 13:54:01;;;;;;;;;;;;;;;2.63;100.00;97842.03;4888080;29;19982;-77
2023/01/16 13:56:28;;;;;;;;;;;;;;;2.64;100.00;97832.41;4890643;29;20007;-77